createdAt,value
2024-01-16T00:01:10.551Z,3.00
2024-01-16T00:03:39.764Z,3.37
2024-01-16T00:06:08.902Z,2.80
2024-01-16T00:08:36.481Z,4.30
2024-01-16T00:11:04.826Z,3.33
2024-01-16T00:13:34.608Z,2.20
2024-01-16T00:16:05.254Z,3.23
2024-01-16T00:18:33.405Z,3.10
2024-01-16T00:21:03.841Z,3.00
2024-01-16T00:23:34.121Z,2.70
2024-01-16T00:26:01.898Z,2.50
2024-01-16T00:28:29.478Z,3.10
2024-01-16T00:30:57.005Z,4.43
2024-01-16T00:33:24.722Z,3.43
2024-01-16T00:35:52.588Z,3.20
2024-01-16T00:38:20.222Z,3.67
2024-01-16T00:40:47.791Z,3.47
2024-01-16T00:43:15.476Z,4.73
2024-01-16T00:45:42.964Z,4.33
2024-01-16T00:48:11.915Z,3.50
2024-01-16T00:50:39.905Z,3.70
2024-01-16T00:53:07.536Z,3.10
2024-01-16T00:55:35.025Z,2.80
2024-01-16T00:58:02.548Z,2.40
2024-01-16T01:00:32.337Z,2.90
2024-01-16T01:03:05.032Z,2.80
2024-01-16T01:05:32.816Z,3.30
2024-01-16T01:08:00.423Z,2.40
2024-01-16T01:10:28.095Z,2.30
2024-01-16T01:12:55.802Z,2.33
2024-01-16T01:15:23.651Z,2.27
2024-01-16T01:17:52.275Z,2.70
2024-01-16T01:20:21.174Z,2.03
2024-01-16T01:22:49.118Z,2.03
2024-01-16T01:25:17.063Z,2.03
2024-01-16T01:27:44.631Z,2.37
2024-01-16T01:30:12.969Z,2.10
2024-01-16T01:32:41.410Z,2.63
2024-01-16T01:35:09.374Z,2.67
2024-01-16T01:37:37.015Z,2.53
2024-01-16T01:40:06.782Z,2.00
2024-01-16T01:42:34.297Z,2.60
2024-01-16T01:45:01.839Z,2.13
2024-01-16T01:47:31.235Z,2.20
2024-01-16T01:49:58.956Z,1.70
2024-01-16T01:52:26.580Z,1.63
2024-01-16T01:54:54.145Z,1.77
2024-01-16T01:57:21.735Z,1.50
2024-01-16T01:59:49.420Z,1.70
2024-01-16T02:02:18.575Z,1.50
2024-01-16T02:04:48.180Z,1.57
2024-01-16T02:07:17.238Z,1.50
2024-01-16T02:09:45.610Z,1.53
2024-01-16T02:12:13.336Z,1.70
2024-01-16T02:14:41.010Z,1.83
2024-01-16T02:17:09.001Z,1.40
2024-01-16T02:19:36.798Z,1.57
2024-01-16T02:22:10.949Z,1.70
2024-01-16T02:24:38.507Z,1.27
2024-01-16T02:27:06.460Z,1.40
2024-01-16T02:29:34.096Z,1.40
2024-01-16T02:32:01.590Z,1.30
2024-01-16T02:34:29.270Z,1.30
2024-01-16T02:36:56.778Z,1.50
2024-01-16T02:39:24.403Z,1.70
2024-01-16T02:41:52.221Z,1.97
2024-01-16T02:44:19.761Z,1.60
2024-01-16T02:46:47.328Z,1.50
2024-01-16T02:49:15.236Z,1.80
2024-01-16T02:51:42.831Z,1.77
2024-01-16T02:54:10.445Z,1.80
2024-01-16T02:56:37.975Z,1.77
2024-01-16T02:59:05.650Z,1.30
2024-01-16T03:01:33.146Z,1.50
2024-01-16T03:04:00.748Z,1.60
2024-01-16T03:06:30.203Z,1.47
2024-01-16T03:08:58.308Z,1.37
2024-01-16T03:11:26.121Z,1.53
2024-01-16T03:13:54.570Z,1.60
2024-01-16T03:16:23.173Z,1.90
2024-01-16T03:18:50.765Z,2.07
2024-01-16T03:21:18.370Z,2.80
2024-01-16T03:23:45.986Z,2.60
2024-01-16T03:26:15.453Z,2.30
2024-01-16T03:28:43.755Z,2.43
2024-01-16T03:31:11.422Z,2.30
2024-01-16T03:33:43.979Z,2.60
2024-01-16T03:36:14.618Z,2.50
2024-01-16T03:38:45.693Z,2.60
2024-01-16T03:41:13.524Z,2.30
2024-01-16T03:43:42.052Z,2.07
2024-01-16T03:46:12.309Z,2.17
2024-01-16T03:48:40.724Z,2.37
2024-01-16T03:51:08.361Z,2.33
2024-01-16T03:53:36.312Z,2.47
2024-01-16T03:56:04.332Z,2.33
2024-01-16T03:58:32.203Z,2.53
2024-01-16T04:01:00.258Z,2.57
2024-01-16T04:03:28.172Z,2.50
2024-01-16T04:05:55.824Z,2.10
2024-01-16T04:08:23.344Z,2.27
2024-01-16T04:10:50.839Z,2.40
2024-01-16T04:13:19.076Z,2.40
2024-01-16T04:15:46.668Z,2.33
2024-01-16T04:18:14.342Z,3.00
2024-01-16T04:20:42.124Z,2.63
2024-01-16T04:23:09.751Z,3.00
2024-01-16T04:25:37.256Z,2.83
2024-01-16T04:28:04.971Z,2.63
2024-01-16T04:30:32.584Z,2.50
2024-01-16T04:33:00.583Z,2.57
2024-01-16T04:35:28.239Z,2.30
2024-01-16T04:37:55.723Z,2.20
2024-01-16T04:40:23.315Z,2.20
2024-01-16T04:42:50.855Z,2.10
2024-01-16T04:45:18.321Z,2.23
2024-01-16T04:47:46.074Z,2.17
2024-01-16T04:50:13.744Z,2.10
2024-01-16T04:52:41.300Z,2.03
2024-01-16T04:55:08.944Z,2.07
2024-01-16T04:57:36.722Z,1.90
2024-01-16T05:00:08.431Z,2.30
2024-01-16T05:02:36.186Z,2.30
2024-01-16T05:05:04.001Z,2.60
2024-01-16T05:07:31.759Z,2.50
2024-01-16T05:09:59.425Z,2.00
2024-01-16T05:12:27.124Z,1.97
2024-01-16T05:14:54.712Z,2.27
2024-01-16T05:17:22.532Z,2.00
2024-01-16T05:19:50.134Z,2.20
2024-01-16T05:22:18.192Z,2.27
2024-01-16T05:24:46.118Z,2.23
2024-01-16T05:27:13.694Z,2.30
2024-01-16T05:29:44.462Z,2.30
2024-01-16T05:32:13.323Z,2.23
2024-01-16T05:34:41.218Z,2.37
2024-01-16T05:37:08.759Z,2.83
2024-01-16T05:39:36.599Z,2.20
2024-01-16T05:42:04.611Z,2.47
2024-01-16T05:44:32.123Z,2.50
2024-01-16T05:46:59.672Z,2.40
2024-01-16T05:49:27.314Z,1.70
2024-01-16T05:51:54.899Z,1.80
2024-01-16T05:54:22.805Z,1.90
2024-01-16T05:56:51.411Z,1.73
2024-01-16T05:59:19.132Z,2.10
2024-01-16T06:01:46.650Z,2.73
2024-01-16T06:04:14.946Z,2.90
2024-01-16T06:06:46.789Z,2.70
2024-01-16T06:09:15.725Z,2.50
2024-01-16T06:11:43.566Z,1.90
2024-01-16T06:14:13.696Z,2.03
2024-01-16T06:16:41.272Z,2.63
2024-01-16T06:19:09.680Z,2.27
2024-01-16T06:21:37.214Z,2.40
2024-01-16T06:24:04.900Z,2.23
2024-01-16T06:26:32.952Z,3.13
2024-01-16T06:29:00.525Z,3.27
2024-01-16T06:31:28.242Z,3.37
2024-01-16T06:33:55.864Z,3.40
2024-01-16T06:36:23.473Z,2.80
2024-01-16T06:38:51.069Z,3.43
2024-01-16T06:41:18.714Z,4.73
2024-01-16T06:43:46.266Z,4.00
2024-01-16T06:46:13.739Z,3.67
2024-01-16T06:48:41.436Z,8.47
2024-01-16T06:51:09.684Z,6.67
2024-01-16T06:53:37.403Z,6.57
2024-01-16T06:56:09.256Z,8.90
2024-01-16T06:58:37.193Z,16.67
2024-01-16T07:01:05.785Z,15.40
2024-01-16T07:03:33.481Z,12.37
2024-01-16T07:06:01.198Z,16.33
2024-01-16T07:08:28.983Z,16.43
2024-01-16T07:10:57.767Z,13.67
2024-01-16T07:13:25.352Z,13.80
2024-01-16T07:15:52.888Z,9.60
2024-01-16T07:18:20.559Z,7.23
2024-01-16T07:20:48.304Z,18.07
2024-01-16T07:23:15.912Z,11.53
2024-01-16T07:25:43.420Z,8.10
2024-01-16T07:28:10.973Z,4.20
2024-01-16T07:30:38.649Z,12.17
2024-01-16T07:33:06.516Z,5.93
2024-01-16T07:35:34.627Z,4.80
2024-01-16T07:38:05.332Z,5.43
2024-01-16T07:40:33.542Z,4.23
2024-01-16T07:43:01.028Z,3.90
2024-01-16T07:45:28.723Z,2.53
2024-01-16T07:47:56.530Z,2.87
2024-01-16T07:50:24.146Z,2.50
2024-01-16T07:52:52.142Z,3.20
2024-01-16T07:55:22.042Z,3.43
2024-01-16T07:57:51.176Z,4.80
2024-01-16T08:00:19.329Z,8.57
2024-01-16T08:02:46.917Z,3.83
2024-01-16T08:05:14.685Z,6.07
2024-01-16T08:07:44.986Z,4.70
2024-01-16T08:10:12.652Z,4.70
2024-01-16T08:12:40.272Z,3.40
2024-01-16T08:15:08.939Z,3.43
2024-01-16T08:17:36.521Z,4.40
2024-01-16T08:20:04.802Z,3.57
2024-01-16T08:22:32.345Z,4.73
2024-01-16T08:24:59.824Z,4.70
2024-01-16T08:27:27.374Z,4.57
2024-01-16T08:29:54.999Z,4.50
2024-01-16T08:32:22.677Z,5.87
2024-01-16T08:34:50.370Z,3.30
2024-01-16T08:37:17.912Z,2.10
2024-01-16T08:39:45.478Z,1.87
2024-01-16T08:42:15.875Z,1.90
2024-01-16T08:44:43.795Z,2.03
2024-01-16T08:47:11.829Z,2.00
2024-01-16T08:49:40.006Z,2.20
2024-01-16T08:52:08.005Z,2.03
2024-01-16T08:54:35.558Z,2.90
2024-01-16T08:57:03.519Z,3.10
2024-01-16T08:59:31.211Z,2.70
2024-01-16T09:01:58.775Z,2.37
2024-01-16T09:04:26.281Z,1.77
2024-01-16T09:06:54.295Z,1.70
2024-01-16T09:09:22.431Z,1.70
2024-01-16T09:11:50.770Z,2.17
2024-01-16T09:14:18.575Z,2.20
2024-01-16T09:16:46.733Z,2.20
2024-01-16T09:19:14.300Z,2.30
2024-01-16T09:21:41.820Z,2.00
2024-01-16T09:24:09.656Z,1.83
2024-01-16T09:26:37.739Z,2.03
2024-01-16T09:29:05.333Z,2.30
2024-01-16T09:31:32.815Z,2.07
2024-01-16T09:34:00.545Z,2.10
2024-01-16T09:36:28.085Z,1.70
2024-01-16T09:38:55.681Z,2.77
2024-01-16T09:41:24.356Z,2.10
2024-01-16T09:43:53.223Z,3.00
2024-01-16T09:46:26.015Z,1.90
2024-01-16T09:48:57.647Z,2.07
2024-01-16T09:51:25.371Z,2.43
2024-01-16T09:53:53.545Z,2.97
2024-01-16T09:56:25.850Z,3.73
2024-01-16T09:59:06.756Z,45.90
2024-01-16T10:01:35.102Z,5.30
2024-01-16T10:04:02.834Z,3.80
2024-01-16T10:06:33.415Z,2.33
2024-01-16T10:09:01.414Z,2.10
2024-01-16T10:11:33.239Z,2.20
2024-01-16T10:14:00.964Z,6.53
2024-01-16T10:17:07.593Z,2.53
2024-01-16T10:19:43.330Z,2.10
2024-01-16T10:22:26.922Z,2.03
2024-01-16T10:25:09.965Z,2.83
2024-01-16T10:27:40.011Z,3.60
2024-01-16T10:30:09.029Z,17.60
2024-01-16T10:32:42.279Z,33.13
2024-01-16T10:35:15.589Z,5.00
2024-01-16T10:37:54.781Z,3.73
2024-01-16T10:40:28.954Z,2.43
2024-01-16T10:43:05.140Z,3.40
2024-01-16T10:45:34.261Z,2.40
2024-01-16T10:48:08.175Z,7.30
2024-01-16T10:50:41.729Z,7.13
2024-01-16T10:53:10.424Z,3.33
2024-01-16T10:55:52.829Z,2.97
2024-01-16T10:58:25.121Z,4.43
2024-01-16T11:00:55.234Z,3.50
2024-01-16T11:03:44.346Z,4.50
2024-01-16T11:06:13.344Z,3.40
2024-01-16T11:08:42.386Z,2.87
2024-01-16T11:11:10.922Z,2.47
2024-01-16T11:13:39.536Z,2.53
2024-01-16T11:16:08.757Z,2.20
2024-01-16T11:18:36.796Z,2.80
2024-01-16T11:21:11.174Z,7.13
2024-01-16T11:23:41.481Z,3.73
2024-01-16T11:26:35.535Z,3.40
2024-01-16T11:29:29.334Z,5.07
2024-01-16T11:34:56.138Z,3.93
2024-01-16T11:37:34.059Z,2.50
2024-01-16T11:40:22.081Z,3.30
2024-01-16T11:42:54.599Z,4.07
2024-01-16T11:45:31.463Z,3.40
2024-01-16T11:48:15.818Z,3.50
2024-01-16T11:50:44.661Z,4.00
2024-01-16T11:53:12.390Z,3.77
2024-01-16T11:56:45.865Z,3.50
2024-01-16T11:59:38.844Z,4.80
2024-01-16T12:02:19.877Z,4.30
2024-01-16T12:04:56.516Z,4.83
2024-01-16T12:07:25.095Z,5.10
2024-01-16T12:09:52.595Z,5.80
2024-01-16T12:12:22.417Z,6.33
2024-01-16T12:14:54.951Z,5.27
2024-01-16T12:17:22.770Z,4.60
2024-01-16T12:19:51.049Z,3.70
2024-01-16T12:22:19.901Z,3.60
2024-01-16T12:24:47.545Z,3.43
2024-01-16T12:27:15.820Z,3.83
2024-01-16T12:29:43.871Z,4.43
2024-01-16T12:32:17.647Z,4.03
2024-01-16T12:34:51.525Z,4.30
2024-01-16T12:37:19.082Z,4.47
2024-01-16T12:39:46.623Z,3.90
2024-01-16T12:42:15.853Z,3.90
2024-01-16T12:44:43.527Z,3.93
2024-01-16T12:47:11.206Z,3.63
2024-01-16T12:49:46.193Z,3.70
2024-01-16T12:52:26.938Z,3.77
2024-01-16T12:55:06.354Z,3.83
2024-01-16T12:57:33.954Z,3.50
2024-01-16T13:00:05.797Z,3.30
2024-01-16T13:02:34.966Z,3.37
2024-01-16T13:05:05.057Z,3.40
2024-01-16T13:07:34.745Z,3.57
2024-01-16T13:10:20.667Z,3.47
2024-01-16T13:12:48.996Z,3.97
2024-01-16T13:15:18.590Z,4.13
2024-01-16T13:17:46.883Z,6.40
2024-01-16T13:20:16.211Z,6.93
2024-01-16T13:22:46.620Z,7.27
2024-01-16T13:25:16.537Z,9.73
2024-01-16T13:27:44.206Z,5.63
2024-01-16T13:30:13.899Z,5.27
2024-01-16T13:32:42.146Z,5.50
2024-01-16T13:35:10.481Z,7.03
2024-01-16T13:37:42.460Z,16.67
2024-01-16T13:40:17.019Z,22.67
2024-01-16T13:42:44.788Z,16.87
2024-01-16T13:45:14.978Z,14.20
2024-01-16T13:47:43.206Z,9.43
2024-01-16T13:50:11.566Z,7.40
2024-01-16T13:52:41.685Z,6.37
2024-01-16T13:55:10.049Z,7.63
2024-01-16T13:57:38.008Z,7.53
2024-01-16T14:00:08.193Z,7.57
2024-01-16T14:02:38.561Z,9.10
2024-01-16T14:05:12.019Z,10.23
2024-01-16T14:07:40.147Z,9.37
2024-01-16T14:10:13.568Z,8.67
2024-01-16T14:12:46.207Z,7.40
2024-01-16T14:15:19.998Z,6.53
2024-01-16T14:17:53.802Z,6.33
2024-01-16T14:20:27.570Z,6.67
2024-01-16T14:22:56.679Z,6.30
2024-01-16T14:25:24.496Z,6.27
2024-01-16T14:28:07.712Z,6.67
2024-01-16T14:30:38.185Z,6.33
2024-01-16T14:33:08.523Z,7.00
2024-01-16T14:35:36.207Z,6.90
2024-01-16T14:38:03.932Z,6.30
2024-01-16T14:40:32.600Z,8.13
2024-01-16T14:43:00.633Z,7.73
2024-01-16T14:45:28.585Z,9.13
2024-01-16T14:47:56.360Z,38.27
2024-01-16T14:50:25.780Z,41.77
2024-01-16T14:52:53.952Z,34.70
2024-01-16T14:55:21.821Z,24.30
2024-01-16T14:57:54.531Z,13.37
2024-01-16T15:00:24.476Z,10.30
2024-01-16T15:02:52.183Z,8.27
2024-01-16T15:05:24.308Z,6.73
2024-01-16T15:07:55.247Z,6.63
2024-01-16T15:10:22.948Z,6.63
2024-01-16T15:12:50.503Z,6.50
2024-01-16T15:15:18.255Z,6.13
2024-01-16T15:17:46.490Z,6.63
2024-01-16T15:20:14.543Z,6.20
2024-01-16T15:22:46.784Z,6.03
2024-01-16T15:25:17.116Z,6.50
2024-01-16T15:27:46.829Z,6.70
2024-01-16T15:30:15.955Z,12.17
2024-01-16T15:32:43.883Z,10.13
2024-01-16T15:35:12.663Z,8.87
2024-01-16T15:37:40.551Z,10.03
2024-01-16T15:40:09.438Z,8.80
2024-01-16T15:42:40.154Z,8.70
2024-01-16T15:45:10.836Z,8.67
2024-01-16T15:47:38.870Z,8.53
2024-01-16T15:50:07.394Z,6.60
2024-01-16T15:52:35.545Z,7.93
2024-01-16T15:55:03.152Z,6.40
2024-01-16T15:57:31.110Z,5.43
2024-01-16T15:59:59.052Z,5.20
2024-01-16T16:02:27.223Z,5.80
2024-01-16T16:04:55.396Z,6.27
2024-01-16T16:07:25.643Z,7.27
2024-01-16T16:09:55.273Z,7.80
2024-01-16T16:12:22.836Z,6.43
2024-01-16T16:14:50.602Z,6.40
2024-01-16T16:17:18.241Z,6.27
2024-01-16T16:19:47.795Z,6.17
2024-01-16T16:22:15.455Z,6.30
2024-01-16T16:24:44.888Z,6.30
2024-01-16T16:27:27.275Z,14.13
2024-01-16T16:29:56.193Z,8.73
2024-01-16T16:32:24.959Z,16.90
2024-01-16T16:34:53.104Z,24.23
2024-01-16T16:37:22.134Z,37.10
2024-01-16T16:39:50.014Z,50.90
2024-01-16T16:42:21.195Z,46.10
2024-01-16T16:44:49.413Z,22.67
2024-01-16T16:47:18.429Z,30.83
2024-01-16T16:49:46.551Z,23.80
2024-01-16T16:52:14.745Z,24.83
2024-01-16T16:54:47.403Z,20.20
2024-01-16T16:57:15.615Z,23.27
2024-01-16T16:59:43.639Z,22.97
2024-01-16T17:02:12.034Z,24.77
2024-01-16T17:04:40.968Z,25.07
2024-01-16T17:07:11.766Z,14.33
2024-01-16T17:09:43.091Z,27.50
2024-01-16T17:12:11.444Z,26.33
2024-01-16T17:14:39.408Z,17.73
2024-01-16T17:17:07.951Z,8.83
2024-01-16T17:19:36.592Z,13.67
2024-01-16T17:22:05.005Z,16.70
2024-01-16T17:24:33.405Z,14.67
2024-01-16T17:27:01.367Z,23.40
2024-01-16T17:29:29.455Z,18.07
2024-01-16T17:31:58.028Z,21.67
2024-01-16T17:34:26.013Z,41.30
2024-01-16T17:36:53.632Z,30.13
2024-01-16T17:39:22.597Z,35.37
2024-01-16T17:41:50.238Z,33.13
2024-01-16T17:44:20.102Z,36.43
2024-01-16T17:46:47.704Z,43.97
2024-01-16T17:49:15.819Z,40.60
2024-01-16T17:51:48.012Z,41.50
2024-01-16T17:54:17.113Z,46.37
2024-01-16T17:56:49.549Z,59.33
2024-01-16T17:59:17.534Z,66.57
2024-01-16T18:01:45.108Z,66.33
2024-01-16T18:04:14.597Z,71.07
2024-01-16T18:06:44.585Z,66.37
2024-01-16T18:09:12.310Z,57.30
2024-01-16T18:12:00.382Z,55.30
2024-01-16T18:14:29.047Z,52.57
2024-01-16T18:16:56.698Z,50.47
2024-01-16T18:19:27.846Z,46.90
2024-01-16T18:21:56.818Z,45.13
2024-01-16T18:24:24.450Z,37.83
2024-01-16T18:26:52.131Z,38.33
2024-01-16T18:29:23.942Z,42.23
2024-01-16T18:31:51.698Z,40.93
2024-01-16T18:34:22.393Z,39.57
2024-01-16T18:36:56.845Z,38.73
2024-01-16T18:39:26.788Z,40.17
2024-01-16T18:41:54.971Z,33.37
2024-01-16T18:44:22.692Z,32.23
2024-01-16T18:46:50.252Z,36.27
2024-01-16T18:49:18.154Z,34.90
2024-01-16T18:51:45.994Z,37.07
2024-01-16T18:54:13.484Z,38.00
2024-01-16T18:56:41.088Z,40.37
2024-01-16T18:59:08.609Z,35.13
2024-01-16T19:01:38.207Z,39.00
2024-01-16T19:04:05.947Z,36.87
2024-01-16T19:06:33.558Z,25.93
2024-01-16T19:09:01.170Z,26.43
2024-01-16T19:11:28.756Z,33.47
2024-01-16T19:13:56.276Z,30.07
2024-01-16T19:16:24.627Z,26.60
2024-01-16T19:18:52.292Z,31.17
2024-01-16T19:21:19.881Z,34.13
2024-01-16T19:23:48.388Z,37.00
2024-01-16T19:26:16.078Z,32.20
2024-01-16T19:28:43.765Z,39.67
2024-01-16T19:31:11.563Z,40.37
2024-01-16T19:33:40.394Z,69.20
2024-01-16T19:36:08.460Z,56.83
2024-01-16T19:38:37.081Z,50.87
2024-01-16T19:41:04.929Z,49.50
2024-01-16T19:43:32.596Z,49.60
2024-01-16T19:46:01.282Z,99.40
2024-01-16T19:48:28.907Z,77.77
2024-01-16T19:50:56.767Z,55.60
2024-01-16T19:53:25.608Z,46.93
2024-01-16T19:55:56.396Z,36.57
2024-01-16T19:58:23.948Z,32.77
2024-01-16T20:00:51.541Z,31.27
2024-01-16T20:03:20.017Z,32.50
2024-01-16T20:05:47.721Z,64.70
2024-01-16T20:08:15.293Z,55.23
2024-01-16T20:10:42.995Z,90.60
2024-01-16T20:13:10.565Z,46.07
2024-01-16T20:15:38.024Z,33.27
2024-01-16T20:18:10.100Z,42.37
2024-01-16T20:20:37.894Z,49.40
2024-01-16T20:23:05.940Z,67.13
2024-01-16T20:25:33.510Z,100.23
2024-01-16T20:28:05.045Z,68.60
2024-01-16T20:30:34.529Z,40.77
2024-01-16T20:33:02.269Z,37.00
2024-01-16T20:35:29.905Z,33.23
2024-01-16T20:37:57.632Z,31.43
2024-01-16T20:40:25.547Z,31.47
2024-01-16T20:42:53.011Z,32.60
2024-01-16T20:45:21.842Z,30.47
2024-01-16T20:47:49.441Z,31.20
2024-01-16T20:50:17.030Z,26.80
2024-01-16T20:52:44.546Z,26.23
2024-01-16T20:55:12.232Z,28.63
2024-01-16T20:57:39.805Z,27.37
2024-01-16T21:00:14.653Z,28.43
2024-01-16T21:02:44.231Z,38.30
2024-01-16T21:05:12.244Z,54.37
2024-01-16T21:07:40.160Z,104.23
2024-01-16T21:10:08.159Z,61.93
2024-01-16T21:12:35.715Z,90.63
2024-01-16T21:15:03.545Z,65.40
2024-01-16T21:17:31.235Z,56.53
2024-01-16T21:19:58.821Z,50.67
2024-01-16T21:22:33.406Z,40.77
2024-01-16T21:25:06.389Z,33.90
2024-01-16T21:27:34.629Z,35.30
2024-01-16T21:30:02.887Z,45.03
2024-01-16T21:32:30.789Z,72.90
2024-01-16T21:34:58.501Z,38.73
2024-01-16T21:37:26.438Z,38.73
2024-01-16T21:39:54.427Z,70.00
2024-01-16T21:42:22.086Z,160.90
2024-01-16T21:44:52.993Z,157.97
2024-01-16T21:47:22.300Z,137.77
2024-01-16T21:49:52.439Z,116.70
2024-01-16T21:52:21.774Z,101.00
2024-01-16T21:54:50.227Z,80.97
2024-01-16T21:57:17.711Z,79.83
2024-01-16T21:59:45.377Z,63.67
2024-01-16T22:02:14.730Z,63.07
2024-01-16T22:04:42.506Z,60.97
2024-01-16T22:07:10.153Z,60.30
2024-01-16T22:09:38.368Z,58.57
2024-01-16T22:12:07.807Z,53.70
2024-01-16T22:14:37.559Z,44.97
2024-01-16T22:17:05.807Z,43.33
2024-01-16T22:19:33.458Z,46.23
2024-01-16T22:22:00.951Z,45.80
2024-01-16T22:24:28.443Z,46.17
2024-01-16T22:26:56.077Z,44.73
2024-01-16T22:29:23.587Z,43.97
2024-01-16T22:31:51.121Z,39.03
2024-01-16T22:34:19.456Z,40.17
2024-01-16T22:36:47.230Z,46.43
2024-01-16T22:39:20.715Z,42.47
2024-01-16T22:41:50.099Z,40.60
2024-01-16T22:44:18.255Z,41.47
2024-01-16T22:46:46.166Z,40.90
2024-01-16T22:49:13.805Z,41.47
2024-01-16T22:51:41.369Z,42.60
2024-01-16T22:54:09.076Z,41.70
2024-01-16T22:56:36.755Z,49.33
2024-01-16T22:59:05.624Z,43.93
2024-01-16T23:01:33.124Z,42.73
2024-01-16T23:04:02.604Z,46.97
2024-01-16T23:06:30.334Z,47.00
2024-01-16T23:09:00.731Z,48.63
2024-01-16T23:11:28.606Z,48.93
2024-01-16T23:13:56.140Z,41.93
2024-01-16T23:16:23.705Z,40.20
2024-01-16T23:18:51.518Z,37.57
2024-01-16T23:21:19.997Z,36.07
2024-01-16T23:24:43.959Z,46.40
2024-01-16T23:27:12.229Z,38.67
2024-01-16T23:29:39.834Z,41.70
2024-01-16T23:32:08.599Z,51.10
2024-01-16T23:34:38.458Z,43.37
2024-01-16T23:37:06.768Z,30.73
2024-01-16T23:39:35.836Z,32.50
2024-01-16T23:42:03.514Z,33.00
2024-01-16T23:44:31.160Z,28.33
2024-01-16T23:46:58.645Z,27.10
2024-01-16T23:49:26.518Z,26.37
2024-01-16T23:51:53.996Z,38.70
2024-01-16T23:54:21.584Z,48.70
2024-01-16T23:56:49.143Z,37.53
2024-01-16T23:59:16.616Z,37.73
